Flight Track Log - Related Links

Times and Time Zones

All times are in EDT time to prevent confusion due to time zone crossing. See the SWA193 flight status page for this flight to view local times or setup timezone preferences in your user account.

Time Position Orientation Groundspeed Altitude Reporting Facility
EDT Latitude Longitude Course Direction KTS MPH feet Rate Location/Type
Mon 08:12:59 AM 26.0769 -80.1392 57° Northeast 196 226 1,200  Level Miami Center
Mon 08:13:41 AM 26.0967 -80.1050 57° Northeast 205 236 2,700 2,971 Climbing Miami Center
Mon 08:14:42 AM 26.1414 -80.0575 44° Northeast 228 262 6,300 3,185 Climbing Miami Center
Mon 08:15:51 AM 26.1861 -80.1119 312° West 244 281 9,600 2,186 Climbing Miami Center
Mon 08:16:51 AM 26.2308 -80.1733 309° West 249 287 11,000 700 Climbing Miami Center
Mon 08:17:51 AM 26.3069 -80.2264 328° Northwest 294 338 11,000 1,150 Level Miami Center
Mon 08:18:51 AM 26.4017 -80.2778 334° Northwest 334 384 13,300 2,650 Climbing Miami Center
Mon 08:19:51 AM 26.4886 -80.3106 341° North 361 415 16,300 2,850 Climbing Miami Center
Mon 08:20:51 AM 26.5964 -80.3486 342° North 367 422 19,000 2,400 Climbing Miami Center
Mon 08:21:51 AM 26.6917 -80.3817 343° North 379 436 21,100 2,150 Climbing Miami Center
Mon 08:22:51 AM 26.8014 -80.4244 341° North 400 460 23,300 2,050 Climbing Miami Center
Mon 08:23:51 AM 26.9153 -80.4628 343° North 405 466 25,200 1,950 Climbing Miami Center
Mon 08:24:51 AM 27.0311 -80.5061 342° North 426 490 27,200 2,000 Climbing Miami Center
Mon 08:25:51 AM 27.1489 -80.5472 343° North 432 497 29,200 1,800 Climbing Miami Center
Mon 08:26:51 AM 27.2689 -80.5906 342° North 439 505 30,800 1,900 Climbing Miami Center
Mon 08:27:51 AM 27.3869 -80.6342 342° North 439 505 33,000 2,100 Climbing Miami Center
Mon 08:28:51 AM 27.5028 -80.6756 342° North 434 499 35,000 1,750 Climbing Miami Center
Mon 08:29:51 AM 27.6144 -80.7144 343° North 428 493 36,500 1,350 Climbing Miami Center
Mon 08:30:51 AM 27.7261 -80.7556 342° North 423 487 37,700 1,050 Climbing Miami Center
Mon 08:31:51 AM 27.8397 -80.7972 342° North 418 481 38,600 600 Climbing Miami Center
Mon 08:32:51 AM 27.9511 -80.8386 342° North 425 489 38,900 200 Climbing Miami Center
Mon 08:33:51 AM 28.0650 -80.8778 343° North 425 489 39,000 50 Climbing Miami Center
Mon 08:34:51 AM 28.1764 -80.9194 342° North 420 483 39,000  Level Miami Center
Mon 08:35:51 AM 28.2922 -80.9614 342° North 420 483 39,000  Level Miami Center
Mon 08:36:51 AM 28.4078 -81.0058 341° North 420 483 39,000  Level Miami Center
Mon 08:37:51 AM 28.5272 -81.0528 341° North 432 497 39,000  Level Miami Center
Mon 08:38:08 AM 28.5564 -81.0608 346° North 433 498 39,000  Level Jacksonville Center
Mon 08:39:08 AM 28.6717 -81.1061 341° North 428 493 39,000  Level Jacksonville Center
Mon 08:40:08 AM 28.7911 -81.1394 346° North 428 493 39,000  Level Jacksonville Center
Mon 08:41:08 AM 28.9125 -81.1681 348° North 435 501 39,000  Level Jacksonville Center
Mon 08:42:08 AM 29.0361 -81.1969 348° North 440 506 39,000  Level Jacksonville Center
Mon 08:43:08 AM 29.1575 -81.2258 348° North 440 506 39,000  Level Jacksonville Center
Mon 08:44:08 AM 29.2789 -81.2569 347° North 440 506 39,000  Level Jacksonville Center
Mon 08:45:08 AM 29.4025 -81.2883 348° North 445 512 39,000  Level Jacksonville Center
Mon 08:46:08 AM 29.5386 -81.3194 349° North 450 518 39,000  Level Jacksonville Center
Mon 08:47:08 AM 29.6600 -81.3486 348° North 450 518 39,000  Level Jacksonville Center
Mon 08:48:08 AM 29.7814 -81.3778 348° North 450 518 39,000 -50 Level Jacksonville Center
Mon 08:49:08 AM 29.9031 -81.4047 349° North 450 518 38,900  Descending Jacksonville Center
Mon 08:50:08 AM 30.0264 -81.4339 348° North 450 518 39,000 50 Climbing Jacksonville Center
Mon 08:51:08 AM 30.1458 -81.4633 348° North 450 518 39,000  Level Jacksonville Center
Mon 08:52:08 AM 30.2692 -81.4953 347° North 450 518 39,000  Level Jacksonville Center
Mon 08:53:08 AM 30.3925 -81.5056 356° North 450 518 39,000  Level Jacksonville Center
Mon 08:54:08 AM 30.5197 -81.4964 North 450 518 39,000  Level Jacksonville Center
Mon 08:55:08 AM 30.6472 -81.4872 North 450 518 39,000  Level Jacksonville Center
Mon 08:56:08 AM 30.7744 -81.4756 North 455 524 39,000  Level Jacksonville Center
Mon 08:57:08 AM 30.9036 -81.4689 North 460 529 39,000 -50 Level Jacksonville Center
Mon 08:58:08 AM 31.0331 -81.4550 North 460 529 38,900 -50 Descending Jacksonville Center
Mon 08:59:08 AM 31.1603 -81.4431 North 455 524 38,900 50 Level Jacksonville Center
Mon 09:00:08 AM 31.2894 -81.4289 North 462 532 39,000 50 Climbing Jacksonville Center
Mon 09:01:08 AM 31.4039 -81.3956 14° North 466 536 39,000  Level Jacksonville Center
Mon 09:02:08 AM 31.5456 -81.3592 12° North 471 542 39,000  Level Jacksonville Center
Mon 09:03:08 AM 31.6767 -81.3253 12° North 471 542 39,000  Level Jacksonville Center
Mon 09:04:08 AM 31.7911 -81.2942 13° North 471 542 39,000  Level Jacksonville Center
Mon 09:05:08 AM 31.9242 -81.2600 12° North 477 549 39,000  Level Jacksonville Center
Mon 09:06:08 AM 32.0533 -81.2258 13° North 477 549 39,000  Level Jacksonville Center
Mon 09:07:08 AM 32.1714 -81.1572 26° Northeast 470 541 39,000  Level Jacksonville Center
Mon 09:08:08 AM 32.2675 -81.0206 50° Northeast 468 539 39,000  Level Jacksonville Center
Mon 09:09:08 AM 32.3431 -80.9008 53° Northeast 474 545 39,000  Level Jacksonville Center
Mon 09:10:08 AM 32.4264 -80.7686 53° Northeast 491 565 39,000 -50 Level Jacksonville Center
Mon 09:11:08 AM 32.5097 -80.6411 52° Northeast 496 571 38,900  Descending Jacksonville Center
Mon 09:12:08 AM 32.5931 -80.5108 53° Northeast 496 571 39,000 50 Climbing Jacksonville Center
Mon 09:13:08 AM 32.6761 -80.3803 53° Northeast 496 571 39,000  Level Jacksonville Center
Mon 09:14:08 AM 32.7611 -80.2469 53° Northeast 496 571 39,000 -50 Level Jacksonville Center
Mon 09:15:08 AM 32.8417 -80.1161 54° Northeast 496 571 38,900  Descending Jacksonville Center
Mon 09:16:08 AM 32.9472 -79.9842 46° Northeast 491 565 39,000 50 Climbing Jacksonville Center
Mon 09:17:08 AM 33.0553 -79.8789 39° Northeast 497 572 39,000  Level Jacksonville Center
Mon 09:18:08 AM 33.1636 -79.7783 38° Northeast 497 572 39,000  Level Jacksonville Center
Mon 09:19:08 AM 33.2736 -79.6728 39° Northeast 497 572 39,000  Level Jacksonville Center
Mon 09:20:08 AM 33.3814 -79.5644 40° Northeast 497 572 39,000  Level Jacksonville Center
Mon 09:21:08 AM 33.4914 -79.4583 39° Northeast 503 579 39,000  Level Jacksonville Center
Mon 09:22:08 AM 33.6011 -79.3517 39° Northeast 503 579 39,000  Level Jacksonville Center
Mon 09:23:08 AM 33.7086 -79.2425 40° Northeast 509 586 39,000  Level Jacksonville Center
Mon 09:24:08 AM 33.8039 -79.1486 39° Northeast 503 579 39,000  Level Jacksonville Center
Mon 09:26:30 AM 34.0658 -78.8908 39° Northeast 517 595 39,000  Level Washington Center
Mon 09:27:30 AM 34.1772 -78.7800 39° Northeast 517 595 39,000 -50 Level Washington Center
Mon 09:28:30 AM 34.2994 -78.6614 39° Northeast 517 595 38,900  Descending Washington Center
Mon 09:29:30 AM 34.4086 -78.5472 41° Northeast 517 595 39,000 50 Climbing Washington Center
Mon 09:30:30 AM 34.5219 -78.4353 39° Northeast 517 595 39,000  Level Washington Center
Mon 09:31:30 AM 34.6331 -78.3206 40° Northeast 517 595 39,000  Level Washington Center
Mon 09:32:30 AM 34.7442 -78.2081 40° Northeast 517 595 39,000  Level Washington Center
Mon 09:33:30 AM 34.8444 -78.1000 41° Northeast 517 595 39,000  Level Washington Center
Mon 09:34:30 AM 34.9575 -77.9869 39° Northeast 522 601 39,000  Level Washington Center
Mon 09:35:30 AM 35.0703 -77.8683 41° Northeast 517 595 39,000  Level Washington Center
Mon 09:36:30 AM 35.1747 -77.7569 41° Northeast 512 589 39,000  Level Washington Center
Mon 09:37:30 AM 35.2914 -77.6406 39° Northeast 518 596 39,000  Level Washington Center
Mon 09:38:30 AM 35.4081 -77.5236 39° Northeast 523 602 39,000  Level Washington Center
Mon 09:39:30 AM 35.5286 -77.4219 34° Northeast 523 602 39,000  Level Washington Center
Mon 09:40:30 AM 35.6472 -77.3147 36° Northeast 523 602 39,000  Level Washington Center
Mon 09:41:30 AM 35.7694 -77.2125 34° Northeast 528 608 39,000  Level Washington Center
Mon 09:42:30 AM 35.8964 -77.0919 38° Northeast 523 602 39,000  Level Washington Center
Mon 09:43:30 AM 36.0164 -76.9889 35° Northeast 518 596 39,000  Level Washington Center
Mon 09:44:30 AM 36.1386 -76.8831 35° Northeast 523 602 39,000  Level Washington Center
Mon 09:45:30 AM 36.2608 -76.7744 36° Northeast 528 608 39,000  Level Washington Center
Mon 09:46:30 AM 36.3808 -76.6678 36° Northeast 528 608 39,000  Level Washington Center
Mon 09:47:30 AM 36.5006 -76.5558 37° Northeast 528 608 39,000  Level Washington Center
Mon 09:48:30 AM 36.6203 -76.4486 36° Northeast 528 608 39,000  Level Washington Center
Mon 09:49:30 AM 36.7400 -76.3383 36° Northeast 528 608 39,000  Level Washington Center
Mon 09:50:30 AM 36.8617 -76.2281 36° Northeast 528 608 39,000  Level Washington Center
Mon 09:51:30 AM 36.9975 -76.1483 25° Northeast 523 602 39,000  Level Washington Center
Mon 09:52:30 AM 37.1336 -76.0764 23° Northeast 523 602 39,000  Level Washington Center
Mon 09:53:30 AM 37.2653 -76.0067 23° Northeast 518 596 39,000  Level Washington Center
Mon 09:54:30 AM 37.4011 -75.9344 23° Northeast 518 596 39,000  Level Washington Center
Mon 09:55:30 AM 37.5347 -75.8617 23° Northeast 518 596 39,000  Level Washington Center
Mon 09:56:30 AM 37.6642 -75.7650 31° Northeast 518 596 39,000  Level Washington Center
Mon 09:57:30 AM 37.7936 -75.6706 30° Northeast 528 608 39,000  Level Washington Center
Mon 09:58:30 AM 37.9208 -75.5733 31° Northeast 528 608 39,000  Level Washington Center
Mon 09:59:30 AM 38.0458 -75.4731 32° Northeast 534 615 39,000 -350 Level Washington Center
Mon 10:00:30 AM 38.1814 -75.3911 25° Northeast 534 615 38,300 -750 Descending Washington Center
Mon 10:01:30 AM 38.2875 -75.3219 27° Northeast 534 615 37,500 -650 Descending Washington Center
Mon 10:02:30 AM 38.4353 -75.2258 27° Northeast 534 615 37,000 -250 Descending Washington Center
Mon 10:03:30 AM 38.5767 -75.1350 27° Northeast 540 621 37,000  Level Washington Center
Mon 10:04:30 AM 38.7119 -75.0517 26° Northeast 540 621 37,000  Level Washington Center
Mon 10:05:30 AM 38.8511 -74.9625 27° Northeast 540 621 37,000  Level Washington Center
Mon 10:06:30 AM 38.9881 -74.8706 28° Northeast 546 628 37,000 -1,868 Level Washington Center
Mon 10:08:17 AM 39.1950 -74.6525 39° Northeast 565 650 31,800 -3,236 Descending New York Center
Mon 10:09:15 AM 39.2936 -74.4997 50° Northeast 559 643 28,100 -3,479 Descending New York Center
Mon 10:10:16 AM 39.3903 -74.3489 50° Northeast 552 635 24,900 -3,000 Descending New York Center
Mon 10:11:15 AM 39.4797 -74.2083 50° Northeast 528 608 22,100 -2,050 Descending New York Center
Mon 10:12:16 AM 39.5628 -74.0775 51° Northeast 493 567 20,800 -1,131 Descending New York Center
Mon 10:13:17 AM 39.6392 -73.9572 50° Northeast 458 527 19,800 -992 Descending New York Center
Mon 10:14:17 AM 39.7194 -73.8339 50° Northeast 449 517 18,800 -1,017 Descending New York Center
Mon 10:15:15 AM 39.7956 -73.7131 51° Northeast 442 509 17,800 -655 Descending New York Center
Mon 10:16:16 AM 39.8694 -73.5917 52° Northeast 437 503 17,500 -639 Descending New York Center
Mon 10:17:17 AM 39.9492 -73.4842 46° Northeast 424 488 16,500 -1,034 Descending New York Center
Mon 10:19:39 AM 40.1617 -73.2383 41° Northeast 403 464 14,000 -1,426 Descending Boston Center
Mon 10:20:39 AM 40.2392 -73.1414 44° Northeast 392 451 11,700 -2,400 Descending Boston Center
Mon 10:21:39 AM 40.3169 -73.0525 41° Northeast 380 437 9,200 -1,133 Descending Boston Center
Mon 10:23:39 AM 40.4667 -72.9167 35° Northeast 301 346 8,300 -677 Descending New York TRACON
Mon 10:24:45 AM 40.5500 -72.8833 17° North 271 312 7,100 -1,333 Descending New York TRACON
Mon 10:25:45 AM 40.6167 -72.8833 360° North 276 318 5,500 -1,750 Descending New York TRACON
Mon 10:26:45 AM 40.6500 -72.9833 294° West 288 331 3,600 -1,579 Descending New York TRACON
Mon 10:27:39 AM 40.6667 -73.0667 285° West 281 323 2,500 -750 Descending New York TRACON
Mon 10:28:45 AM 40.7000 -73.1500 298° West 237 273 2,100 -524 Descending New York TRACON
Mon 10:29:45 AM 40.7500 -73.1667 346° North 157 181 1,400 -650 Descending New York TRACON
Mon 10:30:45 AM 40.7667 -73.1333 57° Northeast 124 143 800 -600 Descending New York TRACON
Mon 10:32:00 AM 40.7833 -73.1000 57° Northeast  Level FlightAware Approximate
Mon 10:39:00 AM 40.7952 -73.1002 57° Northeast  Level Estimated

Login

Don't have an account? Register now (free) for customized features, flight alerts, and more!